Time;durP1;ratioP1;P1;durP2;ratioP2;P2;SDS_P1;SDS_P2;PMS_P1;PMS_P2;Temp;Humidity;BMP_temperature;BMP_pressure;BME280_temperature;BME280_humidity;BME280_pressure;Samples;Min_cycle;Max_cycle;Signal;HPM_P1;HPM_P2
2022/01/17 05:00:47;;;;;;;7.25;1.85;;;7.00;99.90;;;;;;5790380;23;20728;-70
2022/01/17 05:03:13;;;;;;;6.00;2.63;;;7.10;99.90;;;;;;4953336;29;20296;-70
2022/01/17 05:05:40;;;;;;;7.05;1.50;;;7.10;99.90;;;;;;4935255;29;20229;-70
2022/01/17 05:08:07;;;;;;;5.68;1.70;;;7.00;99.90;;;;;;4936215;29;20209;-70
2022/01/17 05:10:34;;;;;;;6.93;2.15;;;7.00;99.90;;;;;;4938081;29;20234;-71
2022/01/17 05:13:01;;;;;;;4.40;1.77;;;7.00;99.90;;;;;;4936844;29;20214;-70
2022/01/17 05:15:32;;;;;;;7.70;1.83;;;7.00;99.90;;;;;;4954341;28;20292;-70
2022/01/17 05:18:23;;;;;;;5.68;1.92;;;7.00;99.90;;;;;;4953513;28;20213;-70
2022/01/17 05:20:49;;;;;;;4.30;1.73;;;6.90;99.90;;;;;;4971105;28;20232;-71
2022/01/17 05:23:16;;;;;;;5.93;2.30;;;6.90;99.90;;;;;;4970378;28;20212;-71
2022/01/17 05:25:43;;;;;;;4.45;2.00;;;6.90;99.90;;;;;;4953863;28;20710;-71
2022/01/17 05:28:09;;;;;;;10.63;2.22;;;6.90;99.90;;;;;;4954706;28;20264;-70
2022/01/17 05:30:36;;;;;;;10.15;2.33;;;6.80;99.90;;;;;;4960098;28;20228;-69
2022/01/17 05:33:04;;;;;;;4.93;1.45;;;6.80;99.90;;;;;;4954026;28;20209;-69
2022/01/17 05:35:31;;;;;;;4.40;1.75;;;6.70;99.90;;;;;;4963583;28;20208;-69
2022/01/17 05:37:57;;;;;;;5.60;1.80;;;6.70;99.90;;;;;;4954036;28;20201;-69
2022/01/17 05:40:24;;;;;;;5.53;1.42;;;6.70;99.90;;;;;;4961517;28;20625;-69
2022/01/17 05:42:51;;;;;;;6.70;1.92;;;6.60;99.90;;;;;;4955570;28;20205;-69
2022/01/17 05:45:18;;;;;;;4.90;1.23;;;6.60;99.90;;;;;;4956479;28;20287;-69
2022/01/17 05:47:46;;;;;;;1.85;1.20;;;6.60;99.90;;;;;;4952738;28;20207;-69
2022/01/17 05:50:15;;;;;;;6.30;2.05;;;6.60;99.90;;;;;;4959316;28;20274;-69
2022/01/17 05:52:42;;;;;;;5.18;2.17;;;6.60;99.90;;;;;;4956815;28;20267;-69
2022/01/17 05:55:12;;;;;;;5.45;1.73;;;6.60;99.90;;;;;;4959074;28;20205;-69
2022/01/17 05:57:39;;;;;;;3.70;1.85;;;6.60;99.90;;;;;;4958358;28;20209;-69
2022/01/17 06:00:09;;;;;;;3.03;1.85;;;6.50;99.90;;;;;;4953698;28;20204;-69
2022/01/17 06:02:35;;;;;;;6.43;1.45;;;6.50;99.90;;;;;;4952615;28;20213;-69
2022/01/17 06:05:02;;;;;;;3.20;1.70;;;6.60;99.90;;;;;;4955141;28;20208;-68
2022/01/17 06:07:30;;;;;;;3.15;1.25;;;6.50;99.90;;;;;;4943209;28;20229;-68
2022/01/17 06:09:57;;;;;;;1.45;1.10;;;6.60;99.90;;;;;;4953591;28;20209;-69
2022/01/17 06:12:23;;;;;;;7.97;2.70;;;6.60;99.90;;;;;;4953395;28;20236;-68
2022/01/17 06:14:50;;;;;;;3.90;2.65;;;6.60;99.90;;;;;;4953906;28;20213;-69
2022/01/17 06:17:17;;;;;;;7.03;2.65;;;6.60;99.90;;;;;;4962674;28;20296;-69
2022/01/17 06:19:43;;;;;;;5.85;2.40;;;6.60;99.90;;;;;;4953292;28;20213;-69
2022/01/17 06:22:12;;;;;;;3.65;1.45;;;6.50;99.90;;;;;;4962928;28;20284;-68
2022/01/17 06:24:40;;;;;;;9.05;2.78;;;6.50;99.90;;;;;;4953882;28;20303;-68
2022/01/17 06:27:06;;;;;;;4.43;3.50;;;6.60;99.90;;;;;;4964279;28;20705;-69
2022/01/17 06:29:33;;;;;;;6.63;2.78;;;6.50;99.90;;;;;;4963673;28;20544;-68
2022/01/17 06:32:00;;;;;;;3.85;1.50;;;6.60;99.90;;;;;;4952413;28;20713;-69
2022/01/17 06:34:27;;;;;;;5.57;1.77;;;6.50;99.90;;;;;;4964863;28;20615;-68
2022/01/17 06:36:53;;;;;;;3.20;1.58;;;6.50;99.90;;;;;;4950145;29;20627;-68
2022/01/17 06:39:20;;;;;;;3.42;1.10;;;6.50;99.90;;;;;;4964640;28;20205;-68
2022/01/17 06:41:48;;;;;;;7.38;3.42;;;6.60;99.90;;;;;;4956521;28;20232;-68
2022/01/17 06:44:15;;;;;;;4.80;2.05;;;6.60;99.90;;;;;;4963605;28;20348;-68
2022/01/17 06:46:41;;;;;;;8.05;2.45;;;6.60;99.90;;;;;;4957906;28;20225;-69
2022/01/17 06:49:08;;;;;;;10.95;4.25;;;6.60;99.90;;;;;;4961612;28;20283;-69
2022/01/17 06:51:35;;;;;;;3.47;2.20;;;6.60;99.90;;;;;;4958309;28;20589;-68
2022/01/17 06:54:02;;;;;;;8.50;2.75;;;6.60;99.90;;;;;;4960273;28;20259;-68
2022/01/17 06:56:29;;;;;;;7.43;2.17;;;6.60;99.90;;;;;;4958140;28;20208;-68
2022/01/17 06:58:57;;;;;;;7.35;2.60;;;6.60;99.90;;;;;;4968477;28;20252;-68
2022/01/17 07:01:24;;;;;;;8.13;2.17;;;6.70;99.90;;;;;;4955522;28;20716;-68
2022/01/17 07:03:51;;;;;;;4.40;3.80;;;6.70;99.90;;;;;;4971789;28;20220;-68
2022/01/17 07:06:19;;;;;;;4.15;2.42;;;6.70;99.90;;;;;;4957819;28;20217;-68
2022/01/17 07:08:46;;;;;;;7.82;2.85;;;6.70;99.90;;;;;;4972086;28;20320;-68
2022/01/17 07:11:12;;;;;;;6.00;2.35;;;6.70;99.90;;;;;;4952351;28;20232;-68
2022/01/17 07:13:39;;;;;;;17.75;5.05;;;6.70;99.90;;;;;;4944742;29;20209;-68
2022/01/17 07:16:07;;;;;;;12.82;3.70;;;6.80;99.90;;;;;;4952194;28;20255;-68
2022/01/17 07:18:34;;;;;;;9.68;2.30;;;6.80;99.90;;;;;;4932895;29;20202;-68
2022/01/17 07:21:00;;;;;;;6.03;2.20;;;6.80;99.90;;;;;;4943970;29;20598;-68
2022/01/17 07:23:27;;;;;;;6.72;2.60;;;6.90;99.90;;;;;;4970005;28;20209;-68
2022/01/17 07:25:54;;;;;;;3.20;1.92;;;6.90;99.90;;;;;;4948940;28;20252;-68
2022/01/17 07:28:21;;;;;;;6.43;2.60;;;6.90;99.90;;;;;;4951940;28;20224;-68
2022/01/17 07:30:48;;;;;;;8.00;3.63;;;7.00;99.90;;;;;;4956403;28;20658;-69
2022/01/17 07:33:16;;;;;;;9.90;2.83;;;7.00;99.90;;;;;;4952097;28;20209;-68
2022/01/17 07:35:45;;;;;;;8.27;2.75;;;7.00;99.90;;;;;;4952949;28;20678;-68
2022/01/17 07:38:13;;;;;;;13.27;2.55;;;7.00;99.90;;;;;;4952019;28;20279;-68
2022/01/17 07:40:39;;;;;;;7.63;2.28;;;7.10;99.90;;;;;;4959648;28;20229;-68
2022/01/17 07:43:07;;;;;;;4.32;2.33;;;7.20;99.90;;;;;;4951982;28;20209;-68
2022/01/17 07:45:34;;;;;;;10.38;3.10;;;7.20;99.90;;;;;;4960091;28;20658;-68
2022/01/17 07:48:33;;;;;;;13.52;3.40;;;7.30;99.90;;;;;;4955176;28;20204;-67
2022/01/17 07:51:00;;;;;;;17.80;3.35;;;7.30;99.90;;;;;;4962904;28;20705;-68
2022/01/17 07:53:27;;;;;;;9.32;3.50;;;7.40;99.90;;;;;;4958468;28;20585;-68
2022/01/17 07:55:55;;;;;;;7.40;2.70;;;7.30;99.90;;;;;;4965331;28;20276;-68
2022/01/17 07:58:22;;;;;;;13.68;4.32;;;7.40;99.90;;;;;;4952963;28;20205;-68
2022/01/17 08:00:49;;;;;;;7.90;2.85;;;7.40;99.90;;;;;;4958647;28;20248;-68
2022/01/17 08:03:15;;;;;;;10.85;2.67;;;7.40;99.90;;;;;;4967213;28;20202;-68
2022/01/17 08:05:42;;;;;;;8.48;3.40;;;7.50;99.90;;;;;;4954363;28;20236;-68
2022/01/17 08:08:10;;;;;;;12.20;2.47;;;7.50;99.90;;;;;;4955044;28;20271;-68
2022/01/17 08:10:38;;;;;;;8.15;2.25;;;7.50;99.90;;;;;;4956289;28;20229;-67
2022/01/17 08:13:05;;;;;;;6.55;2.13;;;7.50;99.90;;;;;;4953552;29;20296;-68
2022/01/17 08:15:32;;;;;;;10.23;3.20;;;7.50;99.90;;;;;;4955500;28;20285;-68
2022/01/17 08:17:58;;;;;;;12.25;2.80;;;7.60;99.90;;;;;;4942013;28;20213;-68
2022/01/17 08:20:25;;;;;;;14.18;2.72;;;7.60;99.90;;;;;;4964998;28;20645;-68
2022/01/17 08:22:52;;;;;;;9.85;2.88;;;7.60;99.90;;;;;;4960008;28;20202;-68
2022/01/17 08:25:20;;;;;;;5.43;2.25;;;7.60;99.90;;;;;;4935981;29;20742;-68
2022/01/17 08:27:46;;;;;;;7.22;2.63;;;7.60;99.90;;;;;;4956085;28;20697;-68
2022/01/17 08:30:14;;;;;;;16.80;3.08;;;7.60;99.90;;;;;;4959582;28;20211;-68
2022/01/17 08:32:41;;;;;;;6.75;2.50;;;7.60;99.90;;;;;;4954681;28;20212;-68
2022/01/17 08:35:08;;;;;;;8.82;3.55;;;7.60;99.90;;;;;;4956174;28;20202;-68
2022/01/17 08:37:35;;;;;;;13.30;3.17;;;7.60;99.90;;;;;;4954435;28;20694;-68
2022/01/17 08:40:04;;;;;;;12.15;3.13;;;7.70;99.90;;;;;;4966894;28;20209;-68
2022/01/17 08:42:33;;;;;;;6.32;2.55;;;7.70;99.90;;;;;;4956851;28;20295;-67
2022/01/17 08:45:00;;;;;;;5.88;1.98;;;7.70;99.90;;;;;;4957017;28;20605;-67
2022/01/17 08:47:27;;;;;;;4.80;2.65;;;7.70;99.90;;;;;;4959601;28;20237;-67
2022/01/17 08:49:54;;;;;;;3.03;1.98;;;7.70;99.90;;;;;;4963528;28;20353;-67
2022/01/17 08:52:21;;;;;;;2.90;1.55;;;7.70;99.90;;;;;;4972744;28;20233;-67
2022/01/17 08:54:48;;;;;;;4.22;1.60;;;7.70;99.90;;;;;;4963190;28;20664;-67
2022/01/17 08:57:17;;;;;;;8.60;2.80;;;7.70;99.90;;;;;;4967117;28;20618;-67
2022/01/17 08:59:45;;;;;;;6.80;2.55;;;7.80;99.90;;;;;;4957440;28;20205;-67
2022/01/17 09:02:12;;;;;;;6.57;1.80;;;7.70;99.90;;;;;;4973298;28;20319;-67
2022/01/17 09:04:41;;;;;;;8.27;2.67;;;7.70;99.90;;;;;;4961094;28;20264;-67
2022/01/17 09:07:09;;;;;;;13.13;3.08;;;7.70;99.90;;;;;;4963654;28;20221;-67
2022/01/17 09:09:37;;;;;;;8.00;2.70;;;7.70;99.90;;;;;;4973886;28;20223;-67
2022/01/17 09:12:04;;;;;;;9.38;2.20;;;7.70;99.90;;;;;;4956747;28;20358;-67
2022/01/17 09:14:31;;;;;;;13.38;2.42;;;7.80;99.90;;;;;;4955195;28;20658;-67
2022/01/17 09:16:59;;;;;;;7.63;2.40;;;7.80;99.90;;;;;;4958907;28;20304;-67
2022/01/17 09:19:25;;;;;;;7.63;2.33;;;7.90;99.90;;;;;;4951363;28;20641;-67
2022/01/17 09:21:52;;;;;;;5.53;1.80;;;7.90;99.90;;;;;;4954247;28;20225;-67
2022/01/17 09:24:19;;;;;;;3.33;1.52;;;7.90;99.90;;;;;;4954029;28;20205;-67
2022/01/17 09:26:46;;;;;;;11.02;2.67;;;7.90;99.90;;;;;;4963189;28;20589;-68
2022/01/17 09:29:13;;;;;;;3.20;1.70;;;7.80;99.90;;;;;;4960599;28;20570;-68
2022/01/17 09:31:40;;;;;;;6.43;2.60;;;7.80;99.90;;;;;;4971936;28;20228;-66
2022/01/17 09:34:08;;;;;;;8.27;3.03;;;7.90;99.90;;;;;;4958882;28;20221;-66
2022/01/17 09:36:35;;;;;;;12.95;3.08;;;7.90;99.90;;;;;;4949274;28;20264;-67
2022/01/17 09:39:03;;;;;;;11.05;2.78;;;7.90;99.90;;;;;;4959542;28;20215;-66
2022/01/17 09:41:31;;;;;;;15.05;3.38;;;8.00;99.90;;;;;;4963638;28;20276;-66
2022/01/17 09:43:58;;;;;;;15.93;3.75;;;8.00;99.90;;;;;;4959590;28;20235;-66
2022/01/17 09:46:31;;;;;;;18.60;3.92;;;8.10;99.90;;;;;;4972368;28;20225;-66
2022/01/17 09:49:13;;;;;;;19.30;3.88;;;8.20;99.90;;;;;;4952806;28;20208;-67
2022/01/17 09:52:04;;;;;;;5.15;1.98;;;8.20;99.90;;;;;;4962728;28;20224;-66
2022/01/17 09:54:35;;;;;;;9.98;2.70;;;8.20;99.90;;;;;;4941743;28;20214;-66
2022/01/17 09:57:06;;;;;;;6.05;2.35;;;8.10;99.90;;;;;;4970937;28;20224;-66
2022/01/17 09:59:33;;;;;;;5.97;3.10;;;8.00;99.90;;;;;;4957577;28;20261;-66
2022/01/17 10:02:00;;;;;;;19.00;4.00;;;8.00;99.90;;;;;;4947781;28;20245;-66
2022/01/17 10:04:26;;;;;;;11.73;4.53;;;8.00;99.90;;;;;;4951470;28;20205;-66
2022/01/17 10:06:56;;;;;;;14.88;3.88;;;8.00;99.90;;;;;;4952335;28;20236;-67
2022/01/17 10:09:25;;;;;;;10.80;3.22;;;8.00;99.90;;;;;;4954114;28;20213;-67
2022/01/17 10:12:07;;;;;;;8.13;3.35;;;7.90;99.90;;;;;;4954794;28;20232;-68
2022/01/17 10:14:37;;;;;;;7.40;2.65;;;7.90;99.90;;;;;;4955537;28;20567;-67
2022/01/17 10:17:14;;;;;;;14.10;4.10;;;7.90;99.90;;;;;;4956972;28;20267;-67
2022/01/17 10:19:45;;;;;;;6.82;2.45;;;7.90;99.90;;;;;;4950318;28;20209;-68
2022/01/17 10:22:26;;;;;;;6.25;2.42;;;7.80;99.90;;;;;;4956873;28;20225;-67
2022/01/17 10:25:01;;;;;;;10.85;3.20;;;7.80;99.90;;;;;;4954917;28;20216;-68
2022/01/17 10:27:52;;;;;;;3.90;2.20;;;7.70;99.90;;;;;;4940700;28;20216;-67
2022/01/17 10:35:56;;;;;;;5.82;1.42;;;7.60;99.90;;;;;;4952269;28;20240;-68
2022/01/17 10:38:27;;;;;;;9.30;2.72;;;7.50;99.90;;;;;;4952800;28;20216;-67
2022/01/17 10:40:57;;;;;;;2.42;1.30;;;7.50;99.90;;;;;;4951068;28;20263;-68
2022/01/17 10:43:26;;;;;;;5.38;1.77;;;7.50;99.90;;;;;;4952710;28;20212;-67
2022/01/17 10:45:54;;;;;;;5.15;1.50;;;7.40;99.90;;;;;;4945499;28;20213;-67
2022/01/17 10:48:27;;;;;;;4.15;2.08;;;7.40;99.90;;;;;;4952828;28;20229;-67
2022/01/17 10:50:54;;;;;;;8.05;2.67;;;7.40;99.90;;;;;;4951752;28;20252;-67
2022/01/17 10:53:21;;;;;;;2.53;2.10;;;7.50;99.90;;;;;;4952228;28;20209;-67
2022/01/17 10:55:51;;;;;;;5.82;1.90;;;7.60;99.90;;;;;;4952627;28;20200;-68
2022/01/17 10:58:24;;;;;;;5.93;2.40;;;7.70;99.90;;;;;;4951498;28;20197;-67
2022/01/17 11:00:53;;;;;;;4.07;1.70;;;7.70;99.90;;;;;;4938148;28;20276;-67
2022/01/17 11:03:22;;;;;;;13.18;2.40;;;7.70;99.90;;;;;;4946343;28;20217;-67
2022/01/17 11:05:53;;;;;;;5.78;1.98;;;7.70;99.90;;;;;;4951702;28;20215;-68
2022/01/17 11:08:22;;;;;;;12.25;2.65;;;7.70;99.90;;;;;;4951439;28;20577;-67
2022/01/17 11:10:53;;;;;;;10.63;2.17;;;7.70;99.90;;;;;;4949180;28;20717;-67
2022/01/17 11:13:21;;;;;;;6.40;2.00;;;7.70;99.90;;;;;;4952075;28;20236;-67
2022/01/17 11:15:54;;;;;;;6.68;2.03;;;7.70;99.90;;;;;;4952316;28;20205;-68
2022/01/17 11:18:24;;;;;;;4.55;1.63;;;7.70;99.90;;;;;;4952362;28;20193;-67
2022/01/17 11:20:52;;;;;;;5.50;1.40;;;7.60;99.90;;;;;;4951161;28;20225;-68
2022/01/17 11:23:21;;;;;;;6.57;2.25;;;7.60;99.90;;;;;;4951181;28;20292;-68
2022/01/17 11:25:52;;;;;;;5.10;3.05;;;7.60;99.90;;;;;;4950081;28;20649;-68
2022/01/17 11:28:22;;;;;;;4.78;1.65;;;7.70;99.90;;;;;;4949001;28;20249;-68
2022/01/17 11:30:53;;;;;;;1.75;1.13;;;7.70;99.90;;;;;;4948251;28;20229;-67
2022/01/17 11:33:20;;;;;;;5.07;1.45;;;7.70;99.90;;;;;;4949803;28;20268;-67
2022/01/17 11:35:51;;;;;;;7.97;2.00;;;7.40;99.90;;;;;;4950893;28;20209;-67
2022/01/17 11:38:21;;;;;;;5.25;1.83;;;7.10;99.90;;;;;;4952925;28;20202;-67
2022/01/17 11:40:48;;;;;;;5.90;1.83;;;6.90;99.90;;;;;;4951722;28;20233;-67
2022/01/17 11:43:22;;;;;;;4.50;1.50;;;6.70;99.90;;;;;;4951444;28;20205;-67
2022/01/17 11:45:50;;;;;;;2.25;1.55;;;6.60;99.90;;;;;;4950677;28;20208;-67
2022/01/17 11:48:20;;;;;;;6.78;1.60;;;6.50;99.90;;;;;;4951651;28;20225;-67
2022/01/17 11:50:50;;;;;;;5.65;2.33;;;6.40;99.90;;;;;;4952912;28;20257;-67
2022/01/17 11:53:53;;;;;;;1.17;1.02;;;6.40;99.90;;;;;;4953781;28;20678;-67
2022/01/17 11:56:36;;;;;;;5.88;2.20;;;6.40;99.90;;;;;;4955652;28;20213;-67
2022/01/17 11:59:41;;;;;;;10.32;3.00;;;6.40;99.90;;;;;;4954062;28;20260;-67
2022/01/17 12:02:26;;;;;;;4.90;1.55;;;6.40;99.90;;;;;;4954712;29;20266;-67
2022/01/17 12:05:42;;;;;;;11.35;3.53;;;6.40;99.90;;;;;;4946501;28;20213;-67
2022/01/17 12:08:11;;;;;;;7.55;2.70;;;6.40;99.90;;;;;;4951697;28;20217;-68
2022/01/17 12:10:53;;;;;;;4.90;2.35;;;6.40;99.90;;;;;;4945836;28;20324;-67
2022/01/17 12:13:37;;;;;;;8.27;3.13;;;6.30;99.90;;;;;;4955599;28;20278;-68
2022/01/17 12:16:11;;;;;;;4.20;1.42;;;6.40;99.90;;;;;;4936447;29;20541;-68
2022/01/17 12:18:41;;;;;;;6.93;2.05;;;6.50;99.90;;;;;;4950486;28;20201;-67
2022/01/17 12:21:23;;;;;;;6.00;2.17;;;6.50;99.90;;;;;;4950115;28;20226;-67
2022/01/17 12:23:51;;;;;;;14.38;2.65;;;6.60;99.90;;;;;;4948813;29;20238;-68
2022/01/17 12:26:29;;;;;;;3.95;2.30;;;6.60;99.90;;;;;;4943841;29;20202;-67
2022/01/17 12:28:57;;;;;;;5.50;2.70;;;6.70;99.90;;;;;;4954527;28;20709;-67
2022/01/17 12:31:42;;;;;;;11.27;3.50;;;6.70;99.90;;;;;;4950394;28;20697;-68
2022/01/17 12:34:18;;;;;;;6.32;2.67;;;6.80;99.90;;;;;;4953273;28;20209;-68
2022/01/17 12:36:46;;;;;;;12.60;6.20;;;6.80;99.90;;;;;;4952291;28;20208;-68
2022/01/17 12:39:16;;;;;;;14.63;3.63;;;6.90;99.90;;;;;;4962645;28;20565;-69
2022/01/17 12:41:46;;;;;;;19.88;4.00;;;6.90;99.90;;;;;;4954433;28;20307;-70
2022/01/17 12:44:16;;;;;;;7.28;3.47;;;7.00;99.90;;;;;;4955134;28;20200;-69
2022/01/17 12:46:45;;;;;;;10.55;3.80;;;7.00;99.90;;;;;;4954980;28;20216;-69
2022/01/17 12:49:12;;;;;;;14.20;3.25;;;6.90;99.90;;;;;;4954324;28;20225;-68
2022/01/17 12:51:43;;;;;;;15.68;4.38;;;6.80;99.90;;;;;;4951769;28;20676;-68
2022/01/17 12:54:11;;;;;;;7.07;3.08;;;6.90;99.90;;;;;;4952416;28;20300;-68
2022/01/17 12:56:42;;;;;;;16.33;4.22;;;6.90;99.90;;;;;;4938303;28;20638;-68
2022/01/17 12:59:10;;;;;;;10.80;3.13;;;7.00;99.90;;;;;;4958109;28;20229;-69
2022/01/17 13:01:41;;;;;;;8.18;2.70;;;7.10;99.90;;;;;;4954683;28;20288;-70
2022/01/17 13:04:11;;;;;;;8.38;3.45;;;7.10;99.90;;;;;;4952112;28;20228;-69
2022/01/17 13:06:39;;;;;;;11.45;3.15;;;7.00;99.90;;;;;;4954044;28;20702;-69
2022/01/17 13:09:10;;;;;;;13.00;4.40;;;7.00;99.90;;;;;;4954325;28;20264;-69
2022/01/17 13:11:40;;;;;;;10.68;3.53;;;7.00;99.90;;;;;;4954001;28;20598;-69
2022/01/17 13:14:08;;;;;;;13.68;2.97;;;7.10;99.90;;;;;;4952450;28;20273;-68
2022/01/17 13:16:35;;;;;;;8.82;2.65;;;7.10;99.90;;;;;;4953931;28;20212;-68
2022/01/17 13:19:04;;;;;;;10.00;3.13;;;7.10;99.90;;;;;;4953448;28;20693;-68
2022/01/17 13:21:34;;;;;;;12.73;3.50;;;7.10;99.90;;;;;;4951827;28;20224;-68
2022/01/17 13:24:12;;;;;;;6.97;3.05;;;7.10;99.90;;;;;;4949866;28;20282;-68
2022/01/17 13:26:42;;;;;;;6.82;2.95;;;7.10;99.90;;;;;;4948015;28;20235;-68
2022/01/17 13:29:10;;;;;;;17.65;5.10;;;7.10;99.90;;;;;;4950803;28;20288;-68
2022/01/17 13:31:38;;;;;;;11.05;3.92;;;7.10;99.90;;;;;;4947245;28;20226;-69
2022/01/17 13:34:14;;;;;;;10.68;2.95;;;7.00;99.90;;;;;;4944637;28;20217;-68
2022/01/17 13:36:44;;;;;;;8.50;3.15;;;7.00;99.90;;;;;;4943658;28;20209;-72
2022/01/17 13:39:13;;;;;;;9.27;3.58;;;7.00;99.90;;;;;;4952288;28;20551;-74
2022/01/17 13:41:42;;;;;;;6.78;3.25;;;7.00;99.90;;;;;;4956446;28;20224;-72
2022/01/17 13:44:09;;;;;;;6.70;3.38;;;7.00;99.90;;;;;;4957392;28;20212;-73
2022/01/17 13:46:38;;;;;;;14.98;4.43;;;7.00;99.90;;;;;;4953180;28;20209;-74
2022/01/17 13:49:05;;;;;;;10.88;3.53;;;7.00;99.90;;;;;;4953559;28;20229;-73
2022/01/17 13:51:32;;;;;;;5.85;2.28;;;6.90;99.90;;;;;;4948627;28;20225;-72
2022/01/17 13:54:00;;;;;;;14.55;4.22;;;6.90;99.90;;;;;;4947066;28;20285;-72
2022/01/17 13:56:33;;;;;;;13.82;4.70;;;6.90;99.90;;;;;;4953006;28;20674;-72
2022/01/17 13:59:01;;;;;;;5.43;2.50;;;7.00;99.90;;;;;;4944457;28;20200;-73
2022/01/17 14:01:34;;;;;;;17.27;4.78;;;6.90;99.90;;;;;;4955377;28;20244;-73
2022/01/17 14:04:04;;;;;;;11.35;4.85;;;6.90;99.90;;;;;;4954816;28;20228;-73
2022/01/17 14:06:31;;;;;;;9.82;4.30;;;6.90;99.90;;;;;;4950983;28;20209;-72
2022/01/17 14:09:00;;;;;;;10.77;3.40;;;6.90;99.90;;;;;;4953499;28;20221;-72
2022/01/17 14:11:28;;;;;;;6.53;3.10;;;6.90;99.90;;;;;;4949316;28;20280;-72
2022/01/17 14:13:58;;;;;;;17.02;4.18;;;7.00;99.90;;;;;;4947650;28;20263;-72
2022/01/17 14:16:27;;;;;;;13.20;3.47;;;6.90;99.90;;;;;;4955047;28;20248;-72
2022/01/17 14:18:56;;;;;;;9.57;3.45;;;6.90;99.90;;;;;;4946924;28;20234;-72
2022/01/17 14:21:29;;;;;;;15.68;4.10;;;7.00;99.90;;;;;;4947356;29;20698;-73
2022/01/17 14:24:14;;;;;;;15.43;3.38;;;6.90;99.90;;;;;;4953325;28;20213;-74
2022/01/17 14:26:47;;;;;;;12.60;3.47;;;6.90;99.90;;;;;;4953092;28;20213;-74
2022/01/17 14:29:15;;;;;;;13.10;4.10;;;6.90;99.90;;;;;;4953064;28;20217;-73
2022/01/17 14:31:44;;;;;;;20.17;4.63;;;6.90;99.90;;;;;;4952538;28;20229;-73
2022/01/17 14:34:19;;;;;;;21.77;3.30;;;6.90;99.90;;;;;;4979564;23;20236;-67
2022/01/17 14:37:04;;;;;;;14.23;2.92;;;6.90;99.90;;;;;;4983481;28;20203;-66
2022/01/17 14:39:34;;;;;;;17.40;3.25;;;6.80;99.90;;;;;;4990875;28;20262;-66
2022/01/17 14:42:08;;;;;;;24.55;10.18;;;6.70;99.90;;;;;;4971630;28;20221;-65
2022/01/17 14:44:36;;;;;;;12.48;3.67;;;6.70;99.90;;;;;;4988312;28;20235;-66
2022/01/17 14:47:11;;;;;;;11.73;2.53;;;6.70;99.90;;;;;;4971432;28;20208;-66
2022/01/17 14:49:41;;;;;;;15.48;4.22;;;6.60;99.90;;;;;;4965760;28;20525;-65
2022/01/17 14:52:12;;;;;;;11.25;3.30;;;6.60;99.90;;;;;;4984926;28;20212;-66
2022/01/17 14:54:47;;;;;;;15.63;3.75;;;6.50;99.90;;;;;;4977554;28;20224;-68
2022/01/17 15:00:04;;;;;;;12.93;4.20;;;6.50;99.90;;;;;;4968348;28;20208;-67
2022/01/17 15:02:34;;;;;;;13.48;5.88;;;6.50;99.90;;;;;;4968046;28;20201;-67
2022/01/17 15:05:01;;;;;;;18.05;4.60;;;6.50;99.90;;;;;;4969815;28;20304;-68
2022/01/17 15:07:29;;;;;;;15.82;4.07;;;6.50;99.90;;;;;;4971610;28;20212;-68
2022/01/17 15:09:56;;;;;;;12.38;4.35;;;6.50;99.90;;;;;;4986393;28;20236;-68
2022/01/17 15:12:24;;;;;;;17.35;4.15;;;6.50;99.90;;;;;;4992804;28;20230;-69
2022/01/17 15:14:51;;;;;;;9.25;3.42;;;6.50;99.90;;;;;;4964385;28;20233;-68
2022/01/17 15:17:20;;;;;;;10.68;4.03;;;6.50;99.90;;;;;;4958038;28;20213;-69
2022/01/17 15:19:47;;;;;;;6.82;3.40;;;6.50;99.90;;;;;;4972833;28;20263;-68
2022/01/17 15:22:14;;;;;;;11.93;4.60;;;6.50;99.90;;;;;;4974746;28;20201;-67
2022/01/17 15:24:41;;;;;;;19.52;3.78;;;6.40;99.90;;;;;;4962853;28;20689;-68
2022/01/17 15:27:08;;;;;;;8.30;3.92;;;6.40;99.90;;;;;;4974194;28;20575;-70
2022/01/17 15:29:36;;;;;;;9.93;3.90;;;6.30;99.90;;;;;;4970987;28;20232;-69
2022/01/17 15:32:07;;;;;;;15.63;5.55;;;6.20;99.90;;;;;;4956061;28;20231;-68
2022/01/17 15:34:34;;;;;;;8.15;3.90;;;6.20;99.90;;;;;;4964599;28;20236;-69
2022/01/17 15:37:01;;;;;;;8.13;3.08;;;6.10;99.90;;;;;;4972642;28;20208;-67
2022/01/17 15:39:27;;;;;;;5.13;4.05;;;6.10;99.90;;;;;;4969502;28;20204;-66
2022/01/17 15:41:54;;;;;;;13.18;4.20;;;6.00;99.90;;;;;;4976041;28;20216;-69
2022/01/17 15:44:21;;;;;;;13.88;3.25;;;5.90;99.90;;;;;;4984069;28;20227;-67
2022/01/17 15:46:50;;;;;;;13.25;4.10;;;5.90;99.90;;;;;;4973185;28;20279;-69
2022/01/17 15:49:16;;;;;;;13.65;4.38;;;5.80;99.90;;;;;;4972389;28;20228;-68
2022/01/17 15:51:43;;;;;;;15.27;3.60;;;5.80;99.90;;;;;;4956098;28;20212;-67
2022/01/17 15:54:10;;;;;;;14.18;4.50;;;5.70;99.90;;;;;;4960961;28;20224;-66
2022/01/17 15:56:37;;;;;;;17.67;3.53;;;5.70;99.90;;;;;;4971567;28;20213;-72
2022/01/17 15:59:05;;;;;;;13.05;3.58;;;5.60;99.90;;;;;;4960986;28;20659;-66
2022/01/17 16:01:32;;;;;;;15.23;3.47;;;5.60;99.90;;;;;;4987203;28;20671;-66
2022/01/17 16:04:00;;;;;;;13.32;3.72;;;5.50;99.90;;;;;;4977444;28;20233;-74
2022/01/17 16:06:27;;;;;;;19.45;4.70;;;5.50;99.90;;;;;;4966111;28;20259;-67
2022/01/17 16:08:54;;;;;;;8.85;4.45;;;5.40;99.90;;;;;;4970794;28;20304;-67
2022/01/17 16:11:25;;;;;;;18.05;5.15;;;5.40;99.90;;;;;;4970710;28;20618;-66
2022/01/17 16:13:52;;;;;;;19.48;3.97;;;5.30;99.90;;;;;;4957459;28;20332;-67
2022/01/17 16:16:19;;;;;;;13.00;5.07;;;5.20;99.90;;;;;;4969307;28;20328;-67
2022/01/17 16:18:46;;;;;;;20.10;5.22;;;5.20;99.90;;;;;;4956281;28;20201;-66
2022/01/17 16:21:14;;;;;;;15.45;4.25;;;5.20;99.90;;;;;;4961352;28;20215;-69
2022/01/17 16:23:41;;;;;;;17.40;5.40;;;5.10;99.90;;;;;;4967842;28;20220;-71
2022/01/17 16:26:07;;;;;;;13.38;5.22;;;5.10;99.90;;;;;;4983396;28;20219;-67
2022/01/17 16:28:34;;;;;;;12.55;4.35;;;5.10;99.90;;;;;;4982009;28;20303;-67
2022/01/17 16:31:02;;;;;;;14.60;3.80;;;5.00;99.90;;;;;;4966211;28;20209;-71
2022/01/17 16:33:29;;;;;;;22.00;5.60;;;4.90;99.90;;;;;;4968705;28;20310;-69
2022/01/17 16:35:55;;;;;;;13.98;4.82;;;4.90;99.90;;;;;;4970878;28;20276;-68
2022/01/17 16:38:24;;;;;;;16.50;4.82;;;4.90;99.90;;;;;;4974778;28;20209;-67
2022/01/17 16:40:50;;;;;;;20.42;6.97;;;4.80;99.90;;;;;;4960758;28;20219;-68
2022/01/17 16:43:18;;;;;;;20.38;8.43;;;4.80;99.90;;;;;;4961359;28;20244;-67
2022/01/17 16:45:45;;;;;;;19.75;6.95;;;4.70;99.90;;;;;;4958192;28;20220;-67
2022/01/17 16:48:13;;;;;;;16.48;6.75;;;4.70;99.90;;;;;;4960506;28;20216;-67
2022/01/17 16:50:40;;;;;;;23.80;7.70;;;4.70;99.90;;;;;;4972051;28;20652;-67
2022/01/17 16:53:07;;;;;;;24.05;11.30;;;4.60;99.90;;;;;;4981903;28;20223;-66
2022/01/17 16:55:36;;;;;;;20.50;6.82;;;4.60;99.90;;;;;;4972519;28;20292;-70
2022/01/17 16:58:04;;;;;;;15.18;7.45;;;4.60;99.90;;;;;;4976619;28;20677;-70
2022/01/17 17:00:31;;;;;;;29.50;7.75;;;4.50;99.90;;;;;;4965482;28;20271;-68
2022/01/17 17:02:58;;;;;;;22.98;13.07;;;4.50;99.90;;;;;;4969348;28;20222;-68
2022/01/17 17:05:25;;;;;;;23.58;9.18;;;4.40;99.90;;;;;;4978634;28;20590;-67
2022/01/17 17:07:54;;;;;;;13.73;8.02;;;4.40;99.90;;;;;;4966726;28;20238;-71
2022/01/17 17:10:22;;;;;;;19.42;7.80;;;4.40;99.90;;;;;;4971136;28;20246;-70
2022/01/17 17:12:50;;;;;;;12.73;6.25;;;4.30;99.90;;;;;;4970224;28;20298;-68
2022/01/17 17:15:17;;;;;;;11.82;5.50;;;4.30;99.90;;;;;;4969156;28;20224;-69
2022/01/17 17:17:44;;;;;;;19.70;6.70;;;4.30;99.90;;;;;;4963500;28;20212;-68
2022/01/17 17:20:12;;;;;;;27.42;9.90;;;4.30;99.90;;;;;;4966775;28;20205;-68
2022/01/17 17:22:40;;;;;;;19.83;10.68;;;4.20;99.90;;;;;;4965271;28;20205;-68
2022/01/17 17:25:08;;;;;;;35.78;11.70;;;4.20;99.90;;;;;;4965025;28;20271;-67
2022/01/17 17:27:36;;;;;;;21.67;10.55;;;4.10;99.90;;;;;;4964616;28;20208;-68
2022/01/17 17:30:07;;;;;;;26.83;9.90;;;4.10;99.90;;;;;;4966116;28;20236;-69
2022/01/17 17:32:35;;;;;;;22.30;10.07;;;4.10;99.90;;;;;;4964125;28;20697;-67
2022/01/17 17:35:03;;;;;;;23.20;8.85;;;4.00;99.90;;;;;;4968691;28;20288;-68
2022/01/17 17:37:30;;;;;;;23.65;11.77;;;4.00;99.90;;;;;;4966461;28;20260;-68
2022/01/17 17:39:57;;;;;;;22.52;9.35;;;4.00;99.90;;;;;;4969227;28;20292;-69
2022/01/17 17:42:25;;;;;;;18.80;6.20;;;4.00;99.90;;;;;;4965047;28;20204;-68
2022/01/17 17:44:52;;;;;;;14.20;6.53;;;3.90;99.90;;;;;;4957335;28;20240;-68
2022/01/17 17:47:21;;;;;;;18.55;5.80;;;3.90;99.90;;;;;;4975523;28;20216;-69
2022/01/17 17:49:48;;;;;;;12.82;5.60;;;3.90;99.90;;;;;;4971121;28;20225;-68
2022/01/17 17:52:15;;;;;;;15.38;5.53;;;3.90;99.90;;;;;;4963479;28;20287;-68
2022/01/17 17:54:42;;;;;;;13.68;5.03;;;3.80;99.90;;;;;;4965449;28;20327;-69
2022/01/17 17:57:11;;;;;;;13.05;6.00;;;3.80;99.90;;;;;;4954586;28;20649;-69
2022/01/17 17:59:38;;;;;;;16.60;6.72;;;3.80;99.90;;;;;;4970551;28;20304;-70
2022/01/17 18:02:05;;;;;;;20.88;7.22;;;3.80;99.90;;;;;;4970088;28;20281;-68
2022/01/17 18:04:33;;;;;;;20.35;6.40;;;3.80;99.90;;;;;;4973642;28;20225;-69
2022/01/17 18:07:00;;;;;;;22.33;11.25;;;3.80;99.90;;;;;;4970815;28;20624;-68
2022/01/17 18:09:26;;;;;;;23.33;10.63;;;3.80;99.90;;;;;;4971731;28;20600;-68
2022/01/17 18:11:53;;;;;;;23.48;9.75;;;3.80;99.90;;;;;;4963256;28;20305;-68